sensor_id;sensor_type;location;lat;lon;timestamp;pressure;altitude;pressure_sealevel;temperature;humidity
56600;BME280;51832;48.152;11.530;2023-11-21T00:02:58;94988.53;;;9.73;94.43
56600;BME280;51832;48.152;11.530;2023-11-21T00:07:58;94992.16;;;9.37;96.15
56600;BME280;51832;48.152;11.530;2023-11-21T00:12:59;94987.69;;;9.26;97.80
56600;BME280;51832;48.152;11.530;2023-11-21T00:17:59;94965.97;;;9.19;98.92
56600;BME280;51832;48.152;11.530;2023-11-21T00:23:00;94966.25;;;8.99;99.40
56600;BME280;51832;48.152;11.530;2023-11-21T00:28:02;94941.56;;;9.30;98.49
56600;BME280;51832;48.152;11.530;2023-11-21T00:33:03;94940.22;;;9.62;97.11
56600;BME280;51832;48.152;11.530;2023-11-21T00:38:04;94923.88;;;9.37;97.97
56600;BME280;51832;48.152;11.530;2023-11-21T00:43:04;94923.66;;;9.62;97.78
56600;BME280;51832;48.152;11.530;2023-11-21T00:48:05;94921.94;;;9.91;94.89
56600;BME280;51832;48.152;11.530;2023-11-21T00:53:06;94929.72;;;9.97;95.00
56600;BME280;51832;48.152;11.530;2023-11-21T00:58:07;94931.09;;;10.23;93.44
56600;BME280;51832;48.152;11.530;2023-11-21T01:03:07;94922.06;;;10.19;92.93
56600;BME280;51832;48.152;11.530;2023-11-21T01:08:08;94916.66;;;10.26;92.92
56600;BME280;51832;48.152;11.530;2023-11-21T01:13:08;94922.13;;;10.13;93.91
56600;BME280;51832;48.152;11.530;2023-11-21T01:18:09;94926.13;;;10.15;93.92
56600;BME280;51832;48.152;11.530;2023-11-21T01:23:09;94927.53;;;10.06;94.26
56600;BME280;51832;48.152;11.530;2023-11-21T01:28:10;94931.53;;;9.74;95.93
56600;BME280;51832;48.152;11.530;2023-11-21T01:33:10;94930.06;;;9.89;94.48
56600;BME280;51832;48.152;11.530;2023-11-21T01:38:10;94935.41;;;10.06;94.61
56600;BME280;51832;48.152;11.530;2023-11-21T01:43:11;94930.84;;;10.02;94.29
56600;BME280;51832;48.152;11.530;2023-11-21T01:48:13;94930.84;;;9.90;94.33
56600;BME280;51832;48.152;11.530;2023-11-21T01:53:13;94936.22;;;9.95;93.01
56600;BME280;51832;48.152;11.530;2023-11-21T01:58:14;94938.88;;;9.95;92.29
56600;BME280;51832;48.152;11.530;2023-11-21T02:03:16;94940.34;;;9.91;91.76
56600;BME280;51832;48.152;11.530;2023-11-21T02:08:17;94951.53;;;10.21;90.89
56600;BME280;51832;48.152;11.530;2023-11-21T02:13:19;94950.97;;;9.73;92.03
56600;BME280;51832;48.152;11.530;2023-11-21T02:18:20;94955.97;;;9.39;93.24
56600;BME280;51832;48.152;11.530;2023-11-21T02:23:22;94952.09;;;9.53;94.02
56600;BME280;51832;48.152;11.530;2023-11-21T02:28:23;94953.28;;;9.16;96.84
56600;BME280;51832;48.152;11.530;2023-11-21T02:33:26;94944.72;;;9.09;98.43
56600;BME280;51832;48.152;11.530;2023-11-21T02:38:26;94938.09;;;9.18;99.30
56600;BME280;51832;48.152;11.530;2023-11-21T02:43:26;94945.09;;;9.36;98.38
56600;BME280;51832;48.152;11.530;2023-11-21T02:48:27;94923.09;;;9.60;97.28
56600;BME280;51832;48.152;11.530;2023-11-21T02:53:27;94921.25;;;9.37;97.12
56600;BME280;51832;48.152;11.530;2023-11-21T02:58:28;94919.00;;;9.52;97.09
56600;BME280;51832;48.152;11.530;2023-11-21T03:03:28;94915.75;;;9.15;98.86
56600;BME280;51832;48.152;11.530;2023-11-21T03:08:29;94917.63;;;9.61;97.14
56600;BME280;51832;48.152;11.530;2023-11-21T03:13:30;94911.78;;;9.59;97.62
56600;BME280;51832;48.152;11.530;2023-11-21T03:18:30;94917.66;;;9.08;99.21
56600;BME280;51832;48.152;11.530;2023-11-21T03:23:32;94913.84;;;8.93;98.76
56600;BME280;51832;48.152;11.530;2023-11-21T03:28:32;94910.63;;;9.44;97.88
56600;BME280;51832;48.152;11.530;2023-11-21T03:33:33;94905.94;;;9.22;98.46
56600;BME280;51832;48.152;11.530;2023-11-21T03:38:33;94909.25;;;9.30;98.34
56600;BME280;51832;48.152;11.530;2023-11-21T03:43:33;94908.56;;;9.34;98.35
56600;BME280;51832;48.152;11.530;2023-11-21T03:48:34;94902.16;;;9.18;99.41
56600;BME280;51832;48.152;11.530;2023-11-21T03:53:34;94903.81;;;8.89;100.00
56600;BME280;51832;48.152;11.530;2023-11-21T03:58:35;94912.09;;;9.16;98.74
56600;BME280;51832;48.152;11.530;2023-11-21T04:03:35;94912.56;;;9.13;98.89
56600;BME280;51832;48.152;11.530;2023-11-21T04:08:36;94900.91;;;9.21;98.29
56600;BME280;51832;48.152;11.530;2023-11-21T04:13:36;94905.28;;;9.27;98.31
56600;BME280;51832;48.152;11.530;2023-11-21T04:18:37;94899.44;;;9.13;98.59
56600;BME280;51832;48.152;11.530;2023-11-21T04:23:38;94913.97;;;8.86;99.45
56600;BME280;51832;48.152;11.530;2023-11-21T04:28:40;94908.16;;;8.96;99.01
56600;BME280;51832;48.152;11.530;2023-11-21T04:33:40;94915.75;;;9.15;98.07
56600;BME280;51832;48.152;11.530;2023-11-21T04:38:40;94925.16;;;8.93;99.07
56600;BME280;51832;48.152;11.530;2023-11-21T04:43:41;94912.00;;;8.81;98.75
56600;BME280;51832;48.152;11.530;2023-11-21T04:48:42;94921.13;;;9.20;97.83
56600;BME280;51832;48.152;11.530;2023-11-21T04:53:43;94917.25;;;9.23;97.85
56600;BME280;51832;48.152;11.530;2023-11-21T04:58:44;94918.06;;;8.82;100.00
56600;BME280;51832;48.152;11.530;2023-11-21T05:03:44;94925.31;;;9.10;99.51
56600;BME280;51832;48.152;11.530;2023-11-21T05:08:44;94925.66;;;9.02;100.00
56600;BME280;51832;48.152;11.530;2023-11-21T05:13:45;94923.56;;;8.92;100.00
56600;BME280;51832;48.152;11.530;2023-11-21T05:18:45;94922.72;;;8.80;100.00
56600;BME280;51832;48.152;11.530;2023-11-21T05:23:46;94924.19;;;9.17;99.48
56600;BME280;51832;48.152;11.530;2023-11-21T05:28:46;94935.78;;;10.21;100.00
56600;BME280;51832;48.152;11.530;2023-11-21T05:33:48;94938.53;;;10.55;100.00
56600;BME280;51832;48.152;11.530;2023-11-21T05:38:48;94936.00;;;10.60;99.36
56600;BME280;51832;48.152;11.530;2023-11-21T05:43:48;94943.97;;;10.37;94.08
56600;BME280;51832;48.152;11.530;2023-11-21T05:48:49;94943.28;;;10.98;92.13
56600;BME280;51832;48.152;11.530;2023-11-21T05:53:50;94959.19;;;9.76;94.10
56600;BME280;51832;48.152;11.530;2023-11-21T05:58:50;94956.78;;;9.40;96.24
56600;BME280;51832;48.152;11.530;2023-11-21T06:03:51;94964.56;;;9.16;97.27
56600;BME280;51832;48.152;11.530;2023-11-21T06:08:51;94947.13;;;8.80;98.57
56600;BME280;51832;48.152;11.530;2023-11-21T06:13:52;94958.97;;;9.01;98.38
56600;BME280;51832;48.152;11.530;2023-11-21T06:18:53;94955.09;;;8.74;99.51
56600;BME280;51832;48.152;11.530;2023-11-21T06:23:53;94963.16;;;9.02;98.25
56600;BME280;51832;48.152;11.530;2023-11-21T06:28:54;94972.03;;;8.89;99.40
56600;BME280;51832;48.152;11.530;2023-11-21T06:33:55;94971.94;;;8.66;99.99
56600;BME280;51832;48.152;11.530;2023-11-21T06:38:55;94966.91;;;8.95;98.69
56600;BME280;51832;48.152;11.530;2023-11-21T06:43:56;94974.84;;;9.18;98.47
56600;BME280;51832;48.152;11.530;2023-11-21T06:48:58;94975.13;;;8.68;99.87
56600;BME280;51832;48.152;11.530;2023-11-21T06:53:58;94988.22;;;8.86;99.82
56600;BME280;51832;48.152;11.530;2023-11-21T06:58:59;94988.13;;;8.93;98.98
56600;BME280;51832;48.152;11.530;2023-11-21T07:03:59;95008.34;;;9.04;98.33
56600;BME280;51832;48.152;11.530;2023-11-21T07:09:00;95003.00;;;8.99;98.47
56600;BME280;51832;48.152;11.530;2023-11-21T07:14:01;95009.69;;;8.95;98.10
56600;BME280;51832;48.152;11.530;2023-11-21T07:19:07;95022.97;;;8.82;98.41
56600;BME280;51832;48.152;11.530;2023-11-21T07:24:08;95014.63;;;8.73;97.89
56600;BME280;51832;48.152;11.530;2023-11-21T07:29:09;95016.97;;;8.93;97.12
56600;BME280;51832;48.152;11.530;2023-11-21T07:34:11;95017.41;;;8.90;96.35
56600;BME280;51832;48.152;11.530;2023-11-21T07:39:12;95021.84;;;9.08;95.92
56600;BME280;51832;48.152;11.530;2023-11-21T07:44:15;95021.69;;;9.03;96.18
56600;BME280;51832;48.152;11.530;2023-11-21T07:49:16;95019.16;;;9.14;96.29
56600;BME280;51832;48.152;11.530;2023-11-21T07:54:20;95013.03;;;9.02;96.55
56600;BME280;51832;48.152;11.530;2023-11-21T07:59:21;95019.47;;;9.18;95.10
56600;BME280;51832;48.152;11.530;2023-11-21T08:04:21;95021.19;;;9.12;95.82
56600;BME280;51832;48.152;11.530;2023-11-21T08:09:22;95019.00;;;9.09;94.68
56600;BME280;51832;48.152;11.530;2023-11-21T08:14:23;95027.41;;;9.00;94.77
56600;BME280;51832;48.152;11.530;2023-11-21T08:19:27;95032.75;;;9.65;92.86
56600;BME280;51832;48.152;11.530;2023-11-21T08:24:27;95031.28;;;9.27;94.91
56600;BME280;51832;48.152;11.530;2023-11-21T08:29:28;95043.31;;;9.16;93.89
56600;BME280;51832;48.152;11.530;2023-11-21T08:34:28;95038.31;;;9.15;94.50
56600;BME280;51832;48.152;11.530;2023-11-21T08:39:29;95035.91;;;9.13;94.81
56600;BME280;51832;48.152;11.530;2023-11-21T08:44:30;95026.56;;;9.17;94.67
56600;BME280;51832;48.152;11.530;2023-11-21T08:49:31;95045.25;;;9.09;94.50
56600;BME280;51832;48.152;11.530;2023-11-21T08:54:32;95040.63;;;9.23;94.84
56600;BME280;51832;48.152;11.530;2023-11-21T08:59:34;95028.72;;;9.50;94.31
56600;BME280;51832;48.152;11.530;2023-11-21T09:04:34;95055.56;;;9.22;94.74
56600;BME280;51832;48.152;11.530;2023-11-21T09:09:35;95044.88;;;9.06;95.94
56600;BME280;51832;48.152;11.530;2023-11-21T09:14:35;95042.75;;;9.14;96.06
56600;BME280;51832;48.152;11.530;2023-11-21T09:19:39;95052.81;;;9.59;94.30
56600;BME280;51832;48.152;11.530;2023-11-21T09:24:39;95062.09;;;9.32;95.60
56600;BME280;51832;48.152;11.530;2023-11-21T09:29:40;95066.34;;;9.86;96.02
56600;BME280;51832;48.152;11.530;2023-11-21T09:34:40;95064.75;;;9.85;93.45
56600;BME280;51832;48.152;11.530;2023-11-21T09:39:41;95074.19;;;10.62;100.00
56600;BME280;51832;48.152;11.530;2023-11-21T09:49:52;95072.81;;;9.60;95.35
56600;BME280;51832;48.152;11.530;2023-11-21T09:54:55;95059.28;;;9.98;94.38
56600;BME280;51832;48.152;11.530;2023-11-21T10:00:01;95064.47;;;10.28;92.96
56600;BME280;51832;48.152;11.530;2023-11-21T10:05:06;95069.41;;;10.24;92.21
56600;BME280;51832;48.152;11.530;2023-11-21T10:10:08;95064.59;;;10.45;90.62
56600;BME280;51832;48.152;11.530;2023-11-21T10:15:11;95081.19;;;10.22;91.98
56600;BME280;51832;48.152;11.530;2023-11-21T10:20:16;95071.53;;;10.04;93.55
56600;BME280;51832;48.152;11.530;2023-11-21T10:25:17;95067.66;;;10.07;93.56
56600;BME280;51832;48.152;11.530;2023-11-21T10:30:20;95069.63;;;10.35;92.70
56600;BME280;51832;48.152;11.530;2023-11-21T10:35:21;95075.91;;;10.22;92.94
56600;BME280;51832;48.152;11.530;2023-11-21T10:40:21;95068.25;;;10.32;93.37
56600;BME280;51832;48.152;11.530;2023-11-21T10:45:22;95071.78;;;10.61;92.51
56600;BME280;51832;48.152;11.530;2023-11-21T10:50:23;95078.78;;;10.44;92.64
56600;BME280;51832;48.152;11.530;2023-11-21T10:55:24;95074.50;;;10.66;91.37
56600;BME280;51832;48.152;11.530;2023-11-21T11:00:27;95068.34;;;10.72;91.30
56600;BME280;51832;48.152;11.530;2023-11-21T11:05:29;95062.09;;;11.01;90.28
56600;BME280;51832;48.152;11.530;2023-11-21T11:10:30;95057.09;;;10.88;90.58
56600;BME280;51832;48.152;11.530;2023-11-21T11:15:30;95080.53;;;11.01;89.26
56600;BME280;51832;48.152;11.530;2023-11-21T11:20:34;95063.59;;;10.97;89.64
56600;BME280;51832;48.152;11.530;2023-11-21T11:31:48;95062.66;;;11.03;89.44
56600;BME280;51832;48.152;11.530;2023-11-21T11:37:05;95051.91;;;11.33;87.96
56600;BME280;51832;48.152;11.530;2023-11-21T11:42:11;95059.00;;;11.04;88.85
56600;BME280;51832;48.152;11.530;2023-11-21T11:47:17;95060.38;;;10.95;88.23
56600;BME280;51832;48.152;11.530;2023-11-21T11:52:36;95050.34;;;10.92;88.46
56600;BME280;51832;48.152;11.530;2023-11-21T11:57:39;95054.63;;;11.38;87.37
56600;BME280;51832;48.152;11.530;2023-11-21T12:02:40;95056.63;;;11.48;87.52
56600;BME280;51832;48.152;11.530;2023-11-21T12:07:52;95058.97;;;11.45;86.77
56600;BME280;51832;48.152;11.530;2023-11-21T12:12:59;95057.03;;;11.40;86.85
56600;BME280;51832;48.152;11.530;2023-11-21T12:18:00;95052.16;;;11.94;84.62
56600;BME280;51832;48.152;11.530;2023-11-21T12:23:00;95057.91;;;11.74;84.20
56600;BME280;51832;48.152;11.530;2023-11-21T12:28:01;95061.84;;;12.05;83.63
56600;BME280;51832;48.152;11.530;2023-11-21T12:33:03;95056.88;;;12.08;83.28
56600;BME280;51832;48.152;11.530;2023-11-21T12:38:04;95054.09;;;11.98;82.97
56600;BME280;51832;48.152;11.530;2023-11-21T12:43:07;95065.91;;;11.22;89.46
56600;BME280;51832;48.152;11.530;2023-11-21T12:48:08;95062.84;;;11.14;90.48
56600;BME280;51832;48.152;11.530;2023-11-21T12:53:10;95062.97;;;11.19;90.85
56600;BME280;51832;48.152;11.530;2023-11-21T12:58:12;95064.50;;;11.60;90.91
56600;BME280;51832;48.152;11.530;2023-11-21T13:03:14;95063.03;;;11.81;91.54
56600;BME280;51832;48.152;11.530;2023-11-21T13:08:24;95063.59;;;11.99;90.99
56600;BME280;51832;48.152;11.530;2023-11-21T13:13:28;95066.16;;;12.11;90.29
56600;BME280;51832;48.152;11.530;2023-11-21T13:18:28;95070.63;;;12.10;89.93
56600;BME280;51832;48.152;11.530;2023-11-21T13:23:29;95072.38;;;12.22;90.79
56600;BME280;51832;48.152;11.530;2023-11-21T13:28:35;95073.84;;;12.29;91.60
56600;BME280;51832;48.152;11.530;2023-11-21T13:33:37;95076.94;;;12.43;91.54
56600;BME280;51832;48.152;11.530;2023-11-21T13:38:38;95085.38;;;12.45;90.85
56600;BME280;51832;48.152;11.530;2023-11-21T13:43:42;95092.22;;;12.41;89.99
56600;BME280;51832;48.152;11.530;2023-11-21T13:48:49;95099.69;;;11.54;92.28
56600;BME280;51832;48.152;11.530;2023-11-21T13:53:56;95108.41;;;10.62;91.98
56600;BME280;51832;48.152;11.530;2023-11-21T13:58:56;95102.56;;;10.60;92.36
56600;BME280;51832;48.152;11.530;2023-11-21T14:04:00;95114.09;;;10.59;92.71
56600;BME280;51832;48.152;11.530;2023-11-21T14:09:17;95121.41;;;10.69;94.06
56600;BME280;51832;48.152;11.530;2023-11-21T14:14:25;95120.38;;;10.82;95.11
56600;BME280;51832;48.152;11.530;2023-11-21T14:19:26;95129.84;;;10.94;93.25
56600;BME280;51832;48.152;11.530;2023-11-21T14:24:31;95124.81;;;11.04;94.10
56600;BME280;51832;48.152;11.530;2023-11-21T14:29:32;95116.56;;;11.01;94.13
56600;BME280;51832;48.152;11.530;2023-11-21T14:34:38;95129.34;;;11.21;93.78
56600;BME280;51832;48.152;11.530;2023-11-21T14:39:41;95126.28;;;11.12;90.88
56600;BME280;51832;48.152;11.530;2023-11-21T14:44:44;95139.00;;;11.03;91.69
56600;BME280;51832;48.152;11.530;2023-11-21T14:49:45;95136.38;;;10.80;91.15
56600;BME280;51832;48.152;11.530;2023-11-21T14:54:56;95136.38;;;10.80;91.83
56600;BME280;51832;48.152;11.530;2023-11-21T15:00:20;95147.00;;;11.20;90.37
56600;BME280;51832;48.152;11.530;2023-11-21T15:05:36;95156.41;;;11.04;91.08
56600;BME280;51832;48.152;11.530;2023-11-21T15:10:39;95156.63;;;11.03;91.18
56600;BME280;51832;48.152;11.530;2023-11-21T15:15:48;95145.06;;;11.16;91.23
56600;BME280;51832;48.152;11.530;2023-11-21T15:20:48;95153.88;;;11.10;91.41
56600;BME280;51832;48.152;11.530;2023-11-21T15:25:49;95149.94;;;11.24;91.93
56600;BME280;51832;48.152;11.530;2023-11-21T15:30:49;95149.53;;;11.03;91.05
56600;BME280;51832;48.152;11.530;2023-11-21T15:35:51;95152.25;;;11.20;89.83
56600;BME280;51832;48.152;11.530;2023-11-21T15:40:51;95161.50;;;11.23;90.75
56600;BME280;51832;48.152;11.530;2023-11-21T15:45:52;95170.84;;;10.55;91.36
56600;BME280;51832;48.152;11.530;2023-11-21T15:50:52;95180.69;;;10.72;92.15
56600;BME280;51832;48.152;11.530;2023-11-21T15:55:57;95170.97;;;10.60;92.45
56600;BME280;51832;48.152;11.530;2023-11-21T16:00:57;95179.78;;;10.78;91.91
56600;BME280;51832;48.152;11.530;2023-11-21T16:05:58;95190.84;;;10.80;91.38
56600;BME280;51832;48.152;11.530;2023-11-21T16:10:58;95192.34;;;10.87;91.18
56600;BME280;51832;48.152;11.530;2023-11-21T16:16:00;95190.09;;;10.79;90.97
56600;BME280;51832;48.152;11.530;2023-11-21T16:21:01;95209.97;;;10.87;92.21
56600;BME280;51832;48.152;11.530;2023-11-21T16:26:02;95213.63;;;10.86;93.53
56600;BME280;51832;48.152;11.530;2023-11-21T16:31:05;95216.50;;;10.84;93.64
56600;BME280;51832;48.152;11.530;2023-11-21T16:36:05;95220.97;;;10.84;94.78
56600;BME280;51832;48.152;11.530;2023-11-21T16:41:06;95228.75;;;10.90;95.16
56600;BME280;51832;48.152;11.530;2023-11-21T16:46:11;95238.72;;;10.77;96.78
56600;BME280;51832;48.152;11.530;2023-11-21T16:51:17;95242.72;;;10.79;97.21
56600;BME280;51832;48.152;11.530;2023-11-21T16:56:17;95248.31;;;10.83;98.30
56600;BME280;51832;48.152;11.530;2023-11-21T17:01:18;95258.50;;;10.79;99.21
56600;BME280;51832;48.152;11.530;2023-11-21T17:06:19;95260.44;;;10.84;97.68
56600;BME280;51832;48.152;11.530;2023-11-21T17:11:20;95267.66;;;10.77;98.60
56600;BME280;51832;48.152;11.530;2023-11-21T17:16:20;95274.53;;;10.78;98.86
56600;BME280;51832;48.152;11.530;2023-11-21T17:21:21;95280.09;;;10.69;98.27
56600;BME280;51832;48.152;11.530;2023-11-21T17:26:22;95291.50;;;10.52;98.63
56600;BME280;51832;48.152;11.530;2023-11-21T17:31:22;95278.13;;;10.53;98.76
56600;BME280;51832;48.152;11.530;2023-11-21T17:36:23;95281.28;;;10.44;100.00
56600;BME280;51832;48.152;11.530;2023-11-21T17:41:24;95278.28;;;10.28;100.00
56600;BME280;51832;48.152;11.530;2023-11-21T17:46:25;95292.44;;;10.27;99.90
56600;BME280;51832;48.152;11.530;2023-11-21T17:51:25;95291.78;;;10.32;100.00
56600;BME280;51832;48.152;11.530;2023-11-21T17:56:26;95290.06;;;10.08;100.00
56600;BME280;51832;48.152;11.530;2023-11-21T18:01:26;95303.59;;;10.41;99.59
56600;BME280;51832;48.152;11.530;2023-11-21T18:06:33;95316.34;;;10.26;100.00
56600;BME280;51832;48.152;11.530;2023-11-21T18:11:34;95310.53;;;10.24;99.64
56600;BME280;51832;48.152;11.530;2023-11-21T18:16:34;95310.78;;;10.34;100.00
56600;BME280;51832;48.152;11.530;2023-11-21T18:21:40;95313.69;;;10.26;100.00
56600;BME280;51832;48.152;11.530;2023-11-21T18:26:41;95307.19;;;10.28;100.00
56600;BME280;51832;48.152;11.530;2023-11-21T18:31:41;95303.88;;;10.21;100.00
56600;BME280;51832;48.152;11.530;2023-11-21T18:36:43;95323.88;;;10.22;100.00
56600;BME280;51832;48.152;11.530;2023-11-21T18:41:45;95326.19;;;10.30;100.00
56600;BME280;51832;48.152;11.530;2023-11-21T18:46:45;95340.16;;;10.31;100.00
56600;BME280;51832;48.152;11.530;2023-11-21T18:51:46;95339.91;;;10.51;100.00
56600;BME280;51832;48.152;11.530;2023-11-21T18:56:48;95340.50;;;10.64;99.89
56600;BME280;51832;48.152;11.530;2023-11-21T19:01:48;95351.34;;;10.56;99.69
56600;BME280;51832;48.152;11.530;2023-11-21T19:06:48;95346.22;;;10.61;99.19
56600;BME280;51832;48.152;11.530;2023-11-21T19:11:49;95363.50;;;10.39;100.00
56600;BME280;51832;48.152;11.530;2023-11-21T19:16:49;95364.47;;;10.26;100.00
56600;BME280;51832;48.152;11.530;2023-11-21T19:21:50;95365.97;;;10.22;100.00
56600;BME280;51832;48.152;11.530;2023-11-21T19:26:50;95365.78;;;10.17;100.00
56600;BME280;51832;48.152;11.530;2023-11-21T19:31:51;95358.19;;;9.91;100.00
56600;BME280;51832;48.152;11.530;2023-11-21T19:36:52;95377.53;;;9.78;100.00
56600;BME280;51832;48.152;11.530;2023-11-21T19:41:52;95382.00;;;9.96;100.00
56600;BME280;51832;48.152;11.530;2023-11-21T19:46:52;95393.75;;;9.93;100.00
56600;BME280;51832;48.152;11.530;2023-11-21T19:51:53;95401.66;;;9.93;100.00
56600;BME280;51832;48.152;11.530;2023-11-21T19:56:53;95402.31;;;10.07;100.00
56600;BME280;51832;48.152;11.530;2023-11-21T20:01:54;95408.59;;;10.06;100.00
56600;BME280;51832;48.152;11.530;2023-11-21T20:06:56;95419.81;;;10.13;100.00
56600;BME280;51832;48.152;11.530;2023-11-21T20:11:56;95425.53;;;10.10;98.63
56600;BME280;51832;48.152;11.530;2023-11-21T20:16:58;95435.88;;;10.05;97.98
56600;BME280;51832;48.152;11.530;2023-11-21T20:21:59;95433.84;;;10.07;97.69
56600;BME280;51832;48.152;11.530;2023-11-21T20:26:59;95449.88;;;10.24;98.38
56600;BME280;51832;48.152;11.530;2023-11-21T20:32:03;95455.56;;;10.21;97.78
56600;BME280;51832;48.152;11.530;2023-11-21T20:37:06;95457.63;;;10.19;96.99
56600;BME280;51832;48.152;11.530;2023-11-21T20:42:06;95464.19;;;10.28;97.30
56600;BME280;51832;48.152;11.530;2023-11-21T20:47:09;95467.63;;;10.28;97.40
56600;BME280;51832;48.152;11.530;2023-11-21T20:52:09;95471.34;;;10.21;96.87
56600;BME280;51832;48.152;11.530;2023-11-21T20:57:10;95472.41;;;10.13;97.31
56600;BME280;51832;48.152;11.530;2023-11-21T21:02:10;95476.84;;;10.13;97.23
56600;BME280;51832;48.152;11.530;2023-11-21T21:07:11;95478.75;;;10.06;98.35
56600;BME280;51832;48.152;11.530;2023-11-21T21:12:11;95487.16;;;10.14;99.26
56600;BME280;51832;48.152;11.530;2023-11-21T21:17:12;95488.31;;;10.00;99.86
56600;BME280;51832;48.152;11.530;2023-11-21T21:22:12;95494.06;;;9.90;100.00
56600;BME280;51832;48.152;11.530;2023-11-21T21:27:13;95489.91;;;10.01;100.00
56600;BME280;51832;48.152;11.530;2023-11-21T21:32:14;95498.00;;;9.99;100.00
56600;BME280;51832;48.152;11.530;2023-11-21T21:37:14;95495.59;;;9.98;100.00
56600;BME280;51832;48.152;11.530;2023-11-21T21:42:15;95498.00;;;9.99;100.00
56600;BME280;51832;48.152;11.530;2023-11-21T21:47:16;95505.09;;;9.99;100.00
56600;BME280;51832;48.152;11.530;2023-11-21T21:52:16;95502.03;;;10.02;100.00
56600;BME280;51832;48.152;11.530;2023-11-21T21:57:16;95508.69;;;10.05;100.00
56600;BME280;51832;48.152;11.530;2023-11-21T22:02:17;95509.91;;;10.02;100.00
56600;BME280;51832;48.152;11.530;2023-11-21T22:07:18;95510.59;;;9.97;100.00
56600;BME280;51832;48.152;11.530;2023-11-21T22:12:21;95511.31;;;10.05;100.00
56600;BME280;51832;48.152;11.530;2023-11-21T22:17:21;95513.78;;;9.99;100.00
56600;BME280;51832;48.152;11.530;2023-11-21T22:22:24;95512.66;;;9.89;100.00
56600;BME280;51832;48.152;11.530;2023-11-21T22:27:27;95525.97;;;9.94;100.00
56600;BME280;51832;48.152;11.530;2023-11-21T22:32:29;95515.88;;;9.91;100.00
56600;BME280;51832;48.152;11.530;2023-11-21T22:37:29;95515.88;;;9.91;100.00
56600;BME280;51832;48.152;11.530;2023-11-21T22:42:29;95531.66;;;9.91;100.00
56600;BME280;51832;48.152;11.530;2023-11-21T22:47:30;95530.44;;;9.93;100.00
56600;BME280;51832;48.152;11.530;2023-11-21T22:52:31;95529.31;;;9.83;100.00
56600;BME280;51832;48.152;11.530;2023-11-21T22:57:31;95531.56;;;9.79;100.00
56600;BME280;51832;48.152;11.530;2023-11-21T23:02:32;95541.84;;;9.81;100.00
56600;BME280;51832;48.152;11.530;2023-11-21T23:07:32;95541.91;;;9.74;100.00
56600;BME280;51832;48.152;11.530;2023-11-21T23:12:33;95546.09;;;9.82;100.00
56600;BME280;51832;48.152;11.530;2023-11-21T23:17:34;95539.59;;;9.84;100.00
56600;BME280;51832;48.152;11.530;2023-11-21T23:22:35;95540.97;;;9.87;100.00
56600;BME280;51832;48.152;11.530;2023-11-21T23:27:37;95535.91;;;9.92;100.00
56600;BME280;51832;48.152;11.530;2023-11-21T23:32:37;95542.50;;;9.76;100.00
56600;BME280;51832;48.152;11.530;2023-11-21T23:37:40;95547.47;;;9.84;100.00
56600;BME280;51832;48.152;11.530;2023-11-21T23:42:40;95542.78;;;9.93;100.00
56600;BME280;51832;48.152;11.530;2023-11-21T23:47:41;95541.75;;;9.94;100.00
56600;BME280;51832;48.152;11.530;2023-11-21T23:52:41;95539.97;;;9.88;100.00
56600;BME280;51832;48.152;11.530;2023-11-21T23:57:42;95546.34;;;9.98;100.00
